sensor_id;sensor_type;location;lat;lon;timestamp;P1;durP1;ratioP1;P2;durP2;ratioP2
44728;SDS011;30457;53.590;9.922;2023-11-19T00:00:23;4.15;;;3.03;;
44728;SDS011;30457;53.590;9.922;2023-11-19T00:04:48;5.05;;;2.88;;
44728;SDS011;30457;53.590;9.922;2023-11-19T00:09:14;4.78;;;3.15;;
44728;SDS011;30457;53.590;9.922;2023-11-19T00:13:41;3.33;;;2.83;;
44728;SDS011;30457;53.590;9.922;2023-11-19T00:18:07;4.68;;;3.33;;
44728;SDS011;30457;53.590;9.922;2023-11-19T00:22:33;3.33;;;2.28;;
44728;SDS011;30457;53.590;9.922;2023-11-19T00:27:01;4.05;;;2.47;;
44728;SDS011;30457;53.590;9.922;2023-11-19T00:31:27;2.47;;;1.98;;
44728;SDS011;30457;53.590;9.922;2023-11-19T00:35:53;2.92;;;2.15;;
44728;SDS011;30457;53.590;9.922;2023-11-19T00:40:18;3.10;;;1.80;;
44728;SDS011;30457;53.590;9.922;2023-11-19T00:44:46;3.25;;;2.28;;
44728;SDS011;30457;53.590;9.922;2023-11-19T00:49:12;2.00;;;1.83;;
44728;SDS011;30457;53.590;9.922;2023-11-19T00:53:38;2.97;;;2.13;;
44728;SDS011;30457;53.590;9.922;2023-11-19T00:58:03;3.03;;;1.83;;
44728;SDS011;30457;53.590;9.922;2023-11-19T01:02:29;3.13;;;1.90;;
44728;SDS011;30457;53.590;9.922;2023-11-19T01:06:55;2.58;;;1.92;;
44728;SDS011;30457;53.590;9.922;2023-11-19T01:11:21;2.08;;;1.50;;
44728;SDS011;30457;53.590;9.922;2023-11-19T01:15:48;1.80;;;1.35;;
44728;SDS011;30457;53.590;9.922;2023-11-19T01:20:14;1.50;;;1.33;;
44728;SDS011;30457;53.590;9.922;2023-11-19T01:24:39;1.23;;;0.88;;
44728;SDS011;30457;53.590;9.922;2023-11-19T01:29:05;1.48;;;1.30;;
44728;SDS011;30457;53.590;9.922;2023-11-19T01:33:31;1.23;;;1.10;;
44728;SDS011;30457;53.590;9.922;2023-11-19T01:37:57;1.92;;;1.20;;
44728;SDS011;30457;53.590;9.922;2023-11-19T01:42:22;0.85;;;0.85;;
44728;SDS011;30457;53.590;9.922;2023-11-19T01:46:50;1.40;;;1.20;;
44728;SDS011;30457;53.590;9.922;2023-11-19T01:51:16;1.83;;;1.13;;
44728;SDS011;30457;53.590;9.922;2023-11-19T01:55:42;1.10;;;1.00;;
44728;SDS011;30457;53.590;9.922;2023-11-19T02:00:07;1.10;;;1.00;;
44728;SDS011;30457;53.590;9.922;2023-11-19T02:04:42;1.05;;;0.80;;
44728;SDS011;30457;53.590;9.922;2023-11-19T02:09:08;1.38;;;1.00;;
44728;SDS011;30457;53.590;9.922;2023-11-19T02:13:34;0.95;;;0.93;;
44728;SDS011;30457;53.590;9.922;2023-11-19T02:18:18;0.70;;;0.70;;
44728;SDS011;30457;53.590;9.922;2023-11-19T02:22:54;0.70;;;0.70;;
44728;SDS011;30457;53.590;9.922;2023-11-19T02:32:21;1.15;;;0.75;;
44728;SDS011;30457;53.590;9.922;2023-11-19T02:36:47;1.25;;;0.95;;
44728;SDS011;30457;53.590;9.922;2023-11-19T02:41:13;0.57;;;0.55;;
44728;SDS011;30457;53.590;9.922;2023-11-19T02:45:39;3.20;;;0.73;;
44728;SDS011;30457;53.590;9.922;2023-11-19T02:50:05;1.10;;;1.02;;
44728;SDS011;30457;53.590;9.922;2023-11-19T02:54:38;0.75;;;0.65;;
44728;SDS011;30457;53.590;9.922;2023-11-19T02:59:04;1.15;;;0.65;;
44728;SDS011;30457;53.590;9.922;2023-11-19T03:03:39;0.88;;;0.80;;
44728;SDS011;30457;53.590;9.922;2023-11-19T03:08:05;1.92;;;0.80;;
44728;SDS011;30457;53.590;9.922;2023-11-19T03:12:31;1.23;;;0.80;;
44728;SDS011;30457;53.590;9.922;2023-11-19T03:16:56;0.93;;;0.93;;
44728;SDS011;30457;53.590;9.922;2023-11-19T03:21:28;1.80;;;1.02;;
44728;SDS011;30457;53.590;9.922;2023-11-19T03:25:54;0.80;;;0.80;;
44728;SDS011;30457;53.590;9.922;2023-11-19T03:30:20;1.35;;;0.98;;
44728;SDS011;30457;53.590;9.922;2023-11-19T03:34:46;1.17;;;1.05;;
44728;SDS011;30457;53.590;9.922;2023-11-19T03:39:11;0.70;;;0.70;;
44728;SDS011;30457;53.590;9.922;2023-11-19T03:43:37;0.65;;;0.65;;
44728;SDS011;30457;53.590;9.922;2023-11-19T03:48:04;1.85;;;0.80;;
44728;SDS011;30457;53.590;9.922;2023-11-19T03:52:30;2.15;;;0.80;;
44728;SDS011;30457;53.590;9.922;2023-11-19T03:56:55;0.77;;;0.77;;
44728;SDS011;30457;53.590;9.922;2023-11-19T04:01:21;1.20;;;1.10;;
44728;SDS011;30457;53.590;9.922;2023-11-19T04:05:46;0.75;;;0.75;;
44728;SDS011;30457;53.590;9.922;2023-11-19T04:10:12;0.80;;;0.80;;
44728;SDS011;30457;53.590;9.922;2023-11-19T04:14:37;1.15;;;1.10;;
44728;SDS011;30457;53.590;9.922;2023-11-19T04:19:03;1.55;;;1.30;;
44728;SDS011;30457;53.590;9.922;2023-11-19T04:23:28;1.30;;;1.20;;
44728;SDS011;30457;53.590;9.922;2023-11-19T04:27:54;3.33;;;1.40;;
44728;SDS011;30457;53.590;9.922;2023-11-19T04:32:19;2.10;;;1.70;;
44728;SDS011;30457;53.590;9.922;2023-11-19T04:36:48;2.40;;;1.75;;
44728;SDS011;30457;53.590;9.922;2023-11-19T04:41:14;5.45;;;2.20;;
44728;SDS011;30457;53.590;9.922;2023-11-19T04:45:39;1.75;;;1.65;;
44728;SDS011;30457;53.590;9.922;2023-11-19T04:50:05;2.50;;;2.10;;
44728;SDS011;30457;53.590;9.922;2023-11-19T04:54:31;2.40;;;2.20;;
44728;SDS011;30457;53.590;9.922;2023-11-19T04:58:56;2.45;;;2.25;;
44728;SDS011;30457;53.590;9.922;2023-11-19T05:03:22;3.40;;;2.88;;
44728;SDS011;30457;53.590;9.922;2023-11-19T05:07:48;4.88;;;3.55;;
44728;SDS011;30457;53.590;9.922;2023-11-19T05:12:13;5.13;;;3.13;;
44728;SDS011;30457;53.590;9.922;2023-11-19T05:16:39;6.22;;;3.88;;
44728;SDS011;30457;53.590;9.922;2023-11-19T05:21:05;7.90;;;4.47;;
44728;SDS011;30457;53.590;9.922;2023-11-19T05:25:32;7.47;;;4.93;;
44728;SDS011;30457;53.590;9.922;2023-11-19T05:29:57;8.85;;;4.75;;
44728;SDS011;30457;53.590;9.922;2023-11-19T05:34:23;5.93;;;4.90;;
44728;SDS011;30457;53.590;9.922;2023-11-19T05:38:49;11.27;;;5.85;;
44728;SDS011;30457;53.590;9.922;2023-11-19T05:43:15;7.40;;;5.63;;
44728;SDS011;30457;53.590;9.922;2023-11-19T05:47:41;8.95;;;5.20;;
44728;SDS011;30457;53.590;9.922;2023-11-19T05:52:07;10.75;;;5.97;;
44728;SDS011;30457;53.590;9.922;2023-11-19T05:56:34;9.48;;;5.20;;
44728;SDS011;30457;53.590;9.922;2023-11-19T06:01:00;8.68;;;5.63;;
44728;SDS011;30457;53.590;9.922;2023-11-19T06:05:26;8.27;;;5.00;;
44728;SDS011;30457;53.590;9.922;2023-11-19T06:09:52;12.15;;;5.47;;
44728;SDS011;30457;53.590;9.922;2023-11-19T06:14:18;11.50;;;5.30;;
44728;SDS011;30457;53.590;9.922;2023-11-19T06:18:47;11.00;;;5.32;;
44728;SDS011;30457;53.590;9.922;2023-11-19T06:23:18;10.32;;;4.93;;
44728;SDS011;30457;53.590;9.922;2023-11-19T06:27:46;11.60;;;5.05;;
44728;SDS011;30457;53.590;9.922;2023-11-19T06:32:14;12.10;;;5.30;;
44728;SDS011;30457;53.590;9.922;2023-11-19T06:36:40;10.82;;;4.32;;
44728;SDS011;30457;53.590;9.922;2023-11-19T06:45:44;11.38;;;4.00;;
44728;SDS011;30457;53.590;9.922;2023-11-19T06:50:13;11.90;;;3.38;;
44728;SDS011;30457;53.590;9.922;2023-11-19T06:54:43;14.80;;;4.68;;
44728;SDS011;30457;53.590;9.922;2023-11-19T07:10:00;19.27;;;3.90;;
44728;SDS011;30457;53.590;9.922;2023-11-19T07:14:45;9.95;;;3.10;;
44728;SDS011;30457;53.590;9.922;2023-11-19T07:19:12;9.75;;;3.10;;
44728;SDS011;30457;53.590;9.922;2023-11-19T07:29:49;8.75;;;2.30;;
44728;SDS011;30457;53.590;9.922;2023-11-19T07:34:33;10.15;;;2.33;;
44728;SDS011;30457;53.590;9.922;2023-11-19T07:43:50;13.07;;;2.63;;
44728;SDS011;30457;53.590;9.922;2023-11-19T07:48:16;8.38;;;2.78;;
44728;SDS011;30457;53.590;9.922;2023-11-19T07:57:48;12.30;;;2.92;;
44728;SDS011;30457;53.590;9.922;2023-11-19T08:02:14;12.10;;;3.40;;
44728;SDS011;30457;53.590;9.922;2023-11-19T08:06:40;12.57;;;2.10;;
44728;SDS011;30457;53.590;9.922;2023-11-19T08:11:05;14.30;;;2.85;;
44728;SDS011;30457;53.590;9.922;2023-11-19T08:15:31;18.38;;;2.42;;
44728;SDS011;30457;53.590;9.922;2023-11-19T08:20:00;15.90;;;2.60;;
44728;SDS011;30457;53.590;9.922;2023-11-19T08:24:49;20.92;;;2.90;;
44728;SDS011;30457;53.590;9.922;2023-11-19T08:29:17;7.90;;;2.60;;
44728;SDS011;30457;53.590;9.922;2023-11-19T08:33:52;13.13;;;3.65;;
44728;SDS011;30457;53.590;9.922;2023-11-19T08:38:20;18.20;;;4.25;;
44728;SDS011;30457;53.590;9.922;2023-11-19T08:42:49;16.52;;;4.20;;
44728;SDS011;30457;53.590;9.922;2023-11-19T08:47:18;12.55;;;3.28;;
44728;SDS011;30457;53.590;9.922;2023-11-19T08:51:46;19.15;;;3.20;;
44728;SDS011;30457;53.590;9.922;2023-11-19T08:56:12;11.13;;;2.28;;
44728;SDS011;30457;53.590;9.922;2023-11-19T09:00:38;16.95;;;4.32;;
44728;SDS011;30457;53.590;9.922;2023-11-19T09:05:04;17.92;;;3.15;;
44728;SDS011;30457;53.590;9.922;2023-11-19T09:09:32;21.15;;;3.83;;
44728;SDS011;30457;53.590;9.922;2023-11-19T09:14:04;20.05;;;4.75;;
44728;SDS011;30457;53.590;9.922;2023-11-19T09:18:29;14.90;;;2.95;;
44728;SDS011;30457;53.590;9.922;2023-11-19T09:22:55;17.92;;;3.00;;
44728;SDS011;30457;53.590;9.922;2023-11-19T09:27:21;14.43;;;3.10;;
44728;SDS011;30457;53.590;9.922;2023-11-19T09:31:46;18.50;;;2.78;;
44728;SDS011;30457;53.590;9.922;2023-11-19T09:36:12;16.00;;;3.05;;
44728;SDS011;30457;53.590;9.922;2023-11-19T09:40:41;16.52;;;5.03;;
44728;SDS011;30457;53.590;9.922;2023-11-19T09:45:07;22.63;;;3.88;;
44728;SDS011;30457;53.590;9.922;2023-11-19T09:49:39;19.80;;;3.80;;
44728;SDS011;30457;53.590;9.922;2023-11-19T09:54:05;21.17;;;4.43;;
44728;SDS011;30457;53.590;9.922;2023-11-19T09:58:31;28.52;;;5.60;;
44728;SDS011;30457;53.590;9.922;2023-11-19T10:02:58;16.67;;;3.10;;
44728;SDS011;30457;53.590;9.922;2023-11-19T10:07:24;27.65;;;6.72;;
44728;SDS011;30457;53.590;9.922;2023-11-19T10:11:50;13.75;;;3.35;;
44728;SDS011;30457;53.590;9.922;2023-11-19T10:16:17;16.10;;;2.97;;
44728;SDS011;30457;53.590;9.922;2023-11-19T10:20:42;21.17;;;4.97;;
44728;SDS011;30457;53.590;9.922;2023-11-19T10:25:24;16.17;;;3.72;;
44728;SDS011;30457;53.590;9.922;2023-11-19T10:29:53;27.92;;;5.03;;
44728;SDS011;30457;53.590;9.922;2023-11-19T10:34:25;21.20;;;3.20;;
44728;SDS011;30457;53.590;9.922;2023-11-19T10:38:53;21.13;;;3.65;;
44728;SDS011;30457;53.590;9.922;2023-11-19T10:43:20;22.10;;;4.13;;
44728;SDS011;30457;53.590;9.922;2023-11-19T10:47:47;21.60;;;3.40;;
44728;SDS011;30457;53.590;9.922;2023-11-19T10:52:17;17.63;;;3.53;;
44728;SDS011;30457;53.590;9.922;2023-11-19T10:56:47;25.15;;;3.72;;
44728;SDS011;30457;53.590;9.922;2023-11-19T11:01:20;22.90;;;4.32;;
44728;SDS011;30457;53.590;9.922;2023-11-19T11:05:49;16.02;;;3.10;;
44728;SDS011;30457;53.590;9.922;2023-11-19T11:10:16;21.92;;;5.22;;
44728;SDS011;30457;53.590;9.922;2023-11-19T11:14:47;13.40;;;3.17;;
44728;SDS011;30457;53.590;9.922;2023-11-19T11:19:13;24.85;;;3.78;;
44728;SDS011;30457;53.590;9.922;2023-11-19T11:23:45;17.95;;;4.00;;
44728;SDS011;30457;53.590;9.922;2023-11-19T11:33:26;22.17;;;3.90;;
44728;SDS011;30457;53.590;9.922;2023-11-19T11:38:03;22.80;;;3.70;;
44728;SDS011;30457;53.590;9.922;2023-11-19T11:42:32;17.17;;;3.63;;
44728;SDS011;30457;53.590;9.922;2023-11-19T11:46:58;14.45;;;2.88;;
44728;SDS011;30457;53.590;9.922;2023-11-19T11:56:11;19.17;;;3.17;;
44728;SDS011;30457;53.590;9.922;2023-11-19T12:00:39;19.40;;;3.83;;
44728;SDS011;30457;53.590;9.922;2023-11-19T12:05:06;15.45;;;3.40;;
44728;SDS011;30457;53.590;9.922;2023-11-19T12:09:32;20.77;;;2.65;;
44728;SDS011;30457;53.590;9.922;2023-11-19T12:13:58;16.63;;;4.50;;
44728;SDS011;30457;53.590;9.922;2023-11-19T12:18:28;24.85;;;4.72;;
44728;SDS011;30457;53.590;9.922;2023-11-19T12:22:55;19.55;;;3.28;;
44728;SDS011;30457;53.590;9.922;2023-11-19T12:27:21;19.33;;;3.05;;
44728;SDS011;30457;53.590;9.922;2023-11-19T12:31:53;16.55;;;3.17;;
44728;SDS011;30457;53.590;9.922;2023-11-19T12:36:20;14.00;;;2.40;;
44728;SDS011;30457;53.590;9.922;2023-11-19T12:40:46;13.80;;;3.05;;
44728;SDS011;30457;53.590;9.922;2023-11-19T12:45:11;19.65;;;2.70;;
44728;SDS011;30457;53.590;9.922;2023-11-19T12:49:38;17.40;;;2.75;;
44728;SDS011;30457;53.590;9.922;2023-11-19T12:54:04;15.85;;;2.15;;
44728;SDS011;30457;53.590;9.922;2023-11-19T12:58:33;16.50;;;3.63;;
44728;SDS011;30457;53.590;9.922;2023-11-19T13:03:01;20.10;;;3.35;;
44728;SDS011;30457;53.590;9.922;2023-11-19T13:07:26;12.27;;;2.90;;
44728;SDS011;30457;53.590;9.922;2023-11-19T13:11:52;17.15;;;2.95;;
44728;SDS011;30457;53.590;9.922;2023-11-19T13:16:19;18.95;;;4.15;;
44728;SDS011;30457;53.590;9.922;2023-11-19T13:20:44;15.70;;;3.53;;
44728;SDS011;30457;53.590;9.922;2023-11-19T13:25:10;21.27;;;3.40;;
44728;SDS011;30457;53.590;9.922;2023-11-19T13:29:36;14.18;;;3.83;;
44728;SDS011;30457;53.590;9.922;2023-11-19T13:34:01;13.52;;;2.38;;
44728;SDS011;30457;53.590;9.922;2023-11-19T13:38:27;14.68;;;2.47;;
44728;SDS011;30457;53.590;9.922;2023-11-19T13:42:52;15.80;;;2.38;;
44728;SDS011;30457;53.590;9.922;2023-11-19T13:47:18;26.88;;;4.05;;
44728;SDS011;30457;53.590;9.922;2023-11-19T13:51:43;15.35;;;3.67;;
44728;SDS011;30457;53.590;9.922;2023-11-19T13:56:10;13.18;;;3.38;;
44728;SDS011;30457;53.590;9.922;2023-11-19T14:00:36;13.40;;;2.78;;
44728;SDS011;30457;53.590;9.922;2023-11-19T14:05:02;12.95;;;4.13;;
44728;SDS011;30457;53.590;9.922;2023-11-19T14:09:28;19.23;;;4.20;;
44728;SDS011;30457;53.590;9.922;2023-11-19T14:13:56;13.25;;;3.58;;
44728;SDS011;30457;53.590;9.922;2023-11-19T14:18:22;20.88;;;3.10;;
44728;SDS011;30457;53.590;9.922;2023-11-19T14:22:57;17.65;;;2.70;;
44728;SDS011;30457;53.590;9.922;2023-11-19T14:27:22;16.25;;;3.33;;
44728;SDS011;30457;53.590;9.922;2023-11-19T14:31:48;11.98;;;2.65;;
44728;SDS011;30457;53.590;9.922;2023-11-19T14:36:13;15.82;;;2.70;;
44728;SDS011;30457;53.590;9.922;2023-11-19T14:40:39;12.27;;;2.20;;
44728;SDS011;30457;53.590;9.922;2023-11-19T14:45:05;15.77;;;3.30;;
44728;SDS011;30457;53.590;9.922;2023-11-19T14:54:57;9.38;;;1.33;;
44728;SDS011;30457;53.590;9.922;2023-11-19T14:59:23;11.80;;;2.38;;
44728;SDS011;30457;53.590;9.922;2023-11-19T15:03:48;5.60;;;1.30;;
44728;SDS011;30457;53.590;9.922;2023-11-19T15:08:14;3.80;;;1.33;;
44728;SDS011;30457;53.590;9.922;2023-11-19T15:12:41;2.38;;;0.65;;
44728;SDS011;30457;53.590;9.922;2023-11-19T15:17:07;2.53;;;0.95;;
44728;SDS011;30457;53.590;9.922;2023-11-19T15:21:33;6.35;;;0.77;;
44728;SDS011;30457;53.590;9.922;2023-11-19T15:25:59;2.40;;;0.50;;
44728;SDS011;30457;53.590;9.922;2023-11-19T15:30:24;2.88;;;0.65;;
44728;SDS011;30457;53.590;9.922;2023-11-19T15:34:51;4.95;;;0.60;;
44728;SDS011;30457;53.590;9.922;2023-11-19T15:39:17;3.10;;;0.93;;
44728;SDS011;30457;53.590;9.922;2023-11-19T15:43:43;1.95;;;0.82;;
44728;SDS011;30457;53.590;9.922;2023-11-19T15:48:08;2.80;;;1.20;;
44728;SDS011;30457;53.590;9.922;2023-11-19T15:52:34;10.07;;;2.58;;
44728;SDS011;30457;53.590;9.922;2023-11-19T15:56:59;9.73;;;3.50;;
44728;SDS011;30457;53.590;9.922;2023-11-19T16:01:26;11.25;;;2.22;;
44728;SDS011;30457;53.590;9.922;2023-11-19T16:05:53;9.57;;;1.70;;
44728;SDS011;30457;53.590;9.922;2023-11-19T16:10:19;16.33;;;3.78;;
44728;SDS011;30457;53.590;9.922;2023-11-19T16:14:44;16.23;;;3.33;;
44728;SDS011;30457;53.590;9.922;2023-11-19T16:19:10;11.68;;;2.17;;
44728;SDS011;30457;53.590;9.922;2023-11-19T16:23:36;12.02;;;2.00;;
44728;SDS011;30457;53.590;9.922;2023-11-19T16:28:01;13.75;;;2.33;;
44728;SDS011;30457;53.590;9.922;2023-11-19T16:32:27;8.25;;;2.28;;
44728;SDS011;30457;53.590;9.922;2023-11-19T16:36:52;10.70;;;2.28;;
44728;SDS011;30457;53.590;9.922;2023-11-19T16:41:18;10.15;;;2.03;;
44728;SDS011;30457;53.590;9.922;2023-11-19T16:45:50;11.45;;;1.67;;
44728;SDS011;30457;53.590;9.922;2023-11-19T16:50:15;9.35;;;2.08;;
44728;SDS011;30457;53.590;9.922;2023-11-19T16:54:41;10.00;;;1.73;;
44728;SDS011;30457;53.590;9.922;2023-11-19T16:59:06;10.73;;;1.40;;
44728;SDS011;30457;53.590;9.922;2023-11-19T17:03:32;11.93;;;2.28;;
44728;SDS011;30457;53.590;9.922;2023-11-19T17:07:59;6.15;;;1.33;;
44728;SDS011;30457;53.590;9.922;2023-11-19T17:12:25;5.75;;;1.50;;
44728;SDS011;30457;53.590;9.922;2023-11-19T17:16:51;7.32;;;1.48;;
44728;SDS011;30457;53.590;9.922;2023-11-19T17:21:17;4.80;;;1.52;;
44728;SDS011;30457;53.590;9.922;2023-11-19T17:25:42;5.72;;;2.17;;
44728;SDS011;30457;53.590;9.922;2023-11-19T17:30:08;11.63;;;1.92;;
44728;SDS011;30457;53.590;9.922;2023-11-19T17:34:34;8.02;;;1.50;;
44728;SDS011;30457;53.590;9.922;2023-11-19T17:38:59;7.07;;;1.38;;
44728;SDS011;30457;53.590;9.922;2023-11-19T17:43:25;7.85;;;1.45;;
44728;SDS011;30457;53.590;9.922;2023-11-19T17:47:51;10.57;;;2.80;;
44728;SDS011;30457;53.590;9.922;2023-11-19T17:52:20;3.40;;;0.88;;
44728;SDS011;30457;53.590;9.922;2023-11-19T17:56:46;4.10;;;1.58;;
44728;SDS011;30457;53.590;9.922;2023-11-19T18:01:11;9.27;;;1.20;;
44728;SDS011;30457;53.590;9.922;2023-11-19T18:05:37;3.75;;;1.05;;
44728;SDS011;30457;53.590;9.922;2023-11-19T18:10:06;5.68;;;1.20;;
44728;SDS011;30457;53.590;9.922;2023-11-19T18:14:32;3.17;;;0.85;;
44728;SDS011;30457;53.590;9.922;2023-11-19T18:18:58;6.30;;;1.20;;
44728;SDS011;30457;53.590;9.922;2023-11-19T18:23:24;2.97;;;0.98;;
44728;SDS011;30457;53.590;9.922;2023-11-19T18:27:50;10.15;;;1.33;;
44728;SDS011;30457;53.590;9.922;2023-11-19T18:32:15;8.50;;;2.13;;
44728;SDS011;30457;53.590;9.922;2023-11-19T18:36:41;6.20;;;1.75;;
44728;SDS011;30457;53.590;9.922;2023-11-19T18:41:07;5.07;;;1.45;;
44728;SDS011;30457;53.590;9.922;2023-11-19T18:45:32;6.68;;;1.73;;
44728;SDS011;30457;53.590;9.922;2023-11-19T18:49:59;4.95;;;2.00;;
44728;SDS011;30457;53.590;9.922;2023-11-19T18:54:25;8.73;;;2.47;;
44728;SDS011;30457;53.590;9.922;2023-11-19T18:58:50;7.72;;;2.28;;
44728;SDS011;30457;53.590;9.922;2023-11-19T19:03:16;11.45;;;2.13;;
44728;SDS011;30457;53.590;9.922;2023-11-19T19:07:46;10.88;;;3.15;;
44728;SDS011;30457;53.590;9.922;2023-11-19T19:12:12;10.98;;;2.28;;
44728;SDS011;30457;53.590;9.922;2023-11-19T19:16:40;11.90;;;2.92;;
44728;SDS011;30457;53.590;9.922;2023-11-19T19:21:06;7.07;;;2.00;;
44728;SDS011;30457;53.590;9.922;2023-11-19T19:25:32;7.40;;;2.30;;
44728;SDS011;30457;53.590;9.922;2023-11-19T19:29:57;10.57;;;2.72;;
44728;SDS011;30457;53.590;9.922;2023-11-19T19:34:23;9.05;;;2.83;;
44728;SDS011;30457;53.590;9.922;2023-11-19T19:38:51;12.95;;;2.35;;
44728;SDS011;30457;53.590;9.922;2023-11-19T19:43:16;11.80;;;3.45;;
44728;SDS011;30457;53.590;9.922;2023-11-19T19:47:42;10.77;;;2.83;;
44728;SDS011;30457;53.590;9.922;2023-11-19T19:52:07;8.63;;;2.38;;
44728;SDS011;30457;53.590;9.922;2023-11-19T19:56:33;9.70;;;2.95;;
44728;SDS011;30457;53.590;9.922;2023-11-19T20:00:59;9.07;;;2.55;;
44728;SDS011;30457;53.590;9.922;2023-11-19T20:05:27;9.82;;;3.53;;
44728;SDS011;30457;53.590;9.922;2023-11-19T20:09:53;10.88;;;3.03;;
44728;SDS011;30457;53.590;9.922;2023-11-19T20:14:19;7.97;;;3.25;;
44728;SDS011;30457;53.590;9.922;2023-11-19T20:18:48;8.10;;;2.58;;
44728;SDS011;30457;53.590;9.922;2023-11-19T20:23:13;10.18;;;3.58;;
44728;SDS011;30457;53.590;9.922;2023-11-19T20:27:39;9.60;;;3.28;;
44728;SDS011;30457;53.590;9.922;2023-11-19T20:32:05;8.02;;;2.83;;
44728;SDS011;30457;53.590;9.922;2023-11-19T20:36:31;7.43;;;2.22;;
44728;SDS011;30457;53.590;9.922;2023-11-19T20:40:57;9.30;;;2.05;;
44728;SDS011;30457;53.590;9.922;2023-11-19T20:45:24;6.93;;;2.42;;
44728;SDS011;30457;53.590;9.922;2023-11-19T20:49:52;9.55;;;2.53;;
44728;SDS011;30457;53.590;9.922;2023-11-19T20:54:17;16.23;;;4.35;;
44728;SDS011;30457;53.590;9.922;2023-11-19T20:58:43;6.22;;;2.33;;
44728;SDS011;30457;53.590;9.922;2023-11-19T21:03:09;10.43;;;3.15;;
44728;SDS011;30457;53.590;9.922;2023-11-19T21:07:34;5.60;;;1.65;;
44728;SDS011;30457;53.590;9.922;2023-11-19T21:12:00;6.53;;;2.17;;
44728;SDS011;30457;53.590;9.922;2023-11-19T21:16:26;5.20;;;2.00;;
44728;SDS011;30457;53.590;9.922;2023-11-19T21:20:51;3.63;;;1.50;;
44728;SDS011;30457;53.590;9.922;2023-11-19T21:25:17;8.60;;;1.95;;
44728;SDS011;30457;53.590;9.922;2023-11-19T21:29:42;4.88;;;2.28;;
44728;SDS011;30457;53.590;9.922;2023-11-19T21:34:08;7.18;;;2.50;;
44728;SDS011;30457;53.590;9.922;2023-11-19T21:38:33;4.43;;;2.20;;
44728;SDS011;30457;53.590;9.922;2023-11-19T21:42:59;4.43;;;2.70;;
44728;SDS011;30457;53.590;9.922;2023-11-19T21:47:24;3.35;;;1.90;;
44728;SDS011;30457;53.590;9.922;2023-11-19T21:51:50;8.13;;;2.30;;
44728;SDS011;30457;53.590;9.922;2023-11-19T21:56:16;6.53;;;2.92;;
44728;SDS011;30457;53.590;9.922;2023-11-19T22:00:42;6.50;;;2.50;;
44728;SDS011;30457;53.590;9.922;2023-11-19T22:05:07;13.95;;;3.30;;
44728;SDS011;30457;53.590;9.922;2023-11-19T22:09:34;10.68;;;2.67;;
44728;SDS011;30457;53.590;9.922;2023-11-19T22:14:00;6.28;;;2.78;;
44728;SDS011;30457;53.590;9.922;2023-11-19T22:18:25;8.13;;;3.40;;
44728;SDS011;30457;53.590;9.922;2023-11-19T22:22:51;10.95;;;3.58;;
44728;SDS011;30457;53.590;9.922;2023-11-19T22:27:17;6.25;;;3.25;;
44728;SDS011;30457;53.590;9.922;2023-11-19T22:31:42;7.80;;;3.17;;
44728;SDS011;30457;53.590;9.922;2023-11-19T22:36:08;11.13;;;3.42;;
44728;SDS011;30457;53.590;9.922;2023-11-19T22:40:35;9.57;;;3.25;;
44728;SDS011;30457;53.590;9.922;2023-11-19T22:45:01;10.10;;;3.78;;
44728;SDS011;30457;53.590;9.922;2023-11-19T22:49:26;5.40;;;3.50;;
44728;SDS011;30457;53.590;9.922;2023-11-19T22:53:53;6.38;;;2.65;;
44728;SDS011;30457;53.590;9.922;2023-11-19T22:58:20;5.25;;;2.53;;
44728;SDS011;30457;53.590;9.922;2023-11-19T23:02:46;6.20;;;3.47;;
44728;SDS011;30457;53.590;9.922;2023-11-19T23:07:12;6.32;;;2.00;;
44728;SDS011;30457;53.590;9.922;2023-11-19T23:11:37;3.70;;;1.70;;
44728;SDS011;30457;53.590;9.922;2023-11-19T23:16:03;6.80;;;2.58;;
44728;SDS011;30457;53.590;9.922;2023-11-19T23:20:29;7.35;;;2.72;;
44728;SDS011;30457;53.590;9.922;2023-11-19T23:24:54;4.55;;;2.53;;
44728;SDS011;30457;53.590;9.922;2023-11-19T23:29:20;6.07;;;3.13;;
44728;SDS011;30457;53.590;9.922;2023-11-19T23:33:45;6.25;;;2.92;;
44728;SDS011;30457;53.590;9.922;2023-11-19T23:38:11;7.90;;;3.10;;
44728;SDS011;30457;53.590;9.922;2023-11-19T23:42:37;6.93;;;3.40;;
44728;SDS011;30457;53.590;9.922;2023-11-19T23:47:02;5.93;;;3.13;;
44728;SDS011;30457;53.590;9.922;2023-11-19T23:51:28;7.97;;;3.10;;
44728;SDS011;30457;53.590;9.922;2023-11-19T23:55:54;5.63;;;3.20;;
